sensor_id;sensor_type;location;lat;lon;timestamp;P1;durP1;ratioP1;P2;durP2;ratioP2
67696;SDS011;54486;51.442;6.778;2023-08-30T00:02:22;14.63;;;7.97;;
67696;SDS011;54486;51.442;6.778;2023-08-30T00:04:49;13.77;;;6.97;;
67696;SDS011;54486;51.442;6.778;2023-08-30T00:07:18;15.40;;;7.88;;
67696;SDS011;54486;51.442;6.778;2023-08-30T00:09:45;14.20;;;7.28;;
67696;SDS011;54486;51.442;6.778;2023-08-30T00:12:12;13.85;;;7.25;;
67696;SDS011;54486;51.442;6.778;2023-08-30T00:14:40;14.27;;;8.02;;
67696;SDS011;54486;51.442;6.778;2023-08-30T00:17:08;15.43;;;7.70;;
67696;SDS011;54486;51.442;6.778;2023-08-30T00:19:36;14.85;;;7.30;;
67696;SDS011;54486;51.442;6.778;2023-08-30T00:22:03;14.43;;;8.10;;
67696;SDS011;54486;51.442;6.778;2023-08-30T00:24:30;15.40;;;8.27;;
67696;SDS011;54486;51.442;6.778;2023-08-30T00:26:56;15.35;;;7.68;;
67696;SDS011;54486;51.442;6.778;2023-08-30T00:29:25;14.52;;;7.82;;
67696;SDS011;54486;51.442;6.778;2023-08-30T00:31:53;13.93;;;7.63;;
67696;SDS011;54486;51.442;6.778;2023-08-30T00:34:21;15.30;;;8.25;;
67696;SDS011;54486;51.442;6.778;2023-08-30T00:36:49;14.98;;;7.53;;
67696;SDS011;54486;51.442;6.778;2023-08-30T00:39:16;14.57;;;7.95;;
67696;SDS011;54486;51.442;6.778;2023-08-30T00:41:43;14.00;;;7.93;;
67696;SDS011;54486;51.442;6.778;2023-08-30T00:44:11;14.25;;;7.68;;
67696;SDS011;54486;51.442;6.778;2023-08-30T00:46:38;14.20;;;7.22;;
67696;SDS011;54486;51.442;6.778;2023-08-30T00:49:05;13.63;;;6.97;;
67696;SDS011;54486;51.442;6.778;2023-08-30T00:51:34;13.20;;;7.30;;
67696;SDS011;54486;51.442;6.778;2023-08-30T00:54:01;15.90;;;7.70;;
67696;SDS011;54486;51.442;6.778;2023-08-30T00:56:29;14.55;;;7.55;;
67696;SDS011;54486;51.442;6.778;2023-08-30T00:58:58;12.80;;;7.13;;
67696;SDS011;54486;51.442;6.778;2023-08-30T01:01:27;14.30;;;7.05;;
67696;SDS011;54486;51.442;6.778;2023-08-30T01:03:55;12.90;;;6.82;;
67696;SDS011;54486;51.442;6.778;2023-08-30T01:06:22;13.68;;;6.88;;
67696;SDS011;54486;51.442;6.778;2023-08-30T01:08:50;12.80;;;7.03;;
67696;SDS011;54486;51.442;6.778;2023-08-30T01:11:22;14.25;;;7.43;;
67696;SDS011;54486;51.442;6.778;2023-08-30T01:14:13;15.50;;;6.88;;
67696;SDS011;54486;51.442;6.778;2023-08-30T01:16:43;13.05;;;7.35;;
67696;SDS011;54486;51.442;6.778;2023-08-30T01:19:16;13.60;;;6.97;;
67696;SDS011;54486;51.442;6.778;2023-08-30T01:27:54;13.65;;;7.43;;
67696;SDS011;54486;51.442;6.778;2023-08-30T01:30:23;16.13;;;8.80;;
67696;SDS011;54486;51.442;6.778;2023-08-30T01:32:54;17.30;;;8.57;;
67696;SDS011;54486;51.442;6.778;2023-08-30T01:35:23;15.90;;;8.73;;
67696;SDS011;54486;51.442;6.778;2023-08-30T01:37:52;16.13;;;9.30;;
67696;SDS011;54486;51.442;6.778;2023-08-30T01:40:20;15.10;;;9.07;;
67696;SDS011;54486;51.442;6.778;2023-08-30T01:42:47;18.77;;;9.77;;
67696;SDS011;54486;51.442;6.778;2023-08-30T01:45:15;16.33;;;9.23;;
67696;SDS011;54486;51.442;6.778;2023-08-30T01:47:44;16.83;;;9.80;;
67696;SDS011;54486;51.442;6.778;2023-08-30T01:50:13;18.20;;;10.70;;
67696;SDS011;54486;51.442;6.778;2023-08-30T01:52:43;18.10;;;10.40;;
67696;SDS011;54486;51.442;6.778;2023-08-30T01:55:13;17.42;;;10.73;;
67696;SDS011;54486;51.442;6.778;2023-08-30T01:57:42;17.07;;;10.03;;
67696;SDS011;54486;51.442;6.778;2023-08-30T02:00:09;17.58;;;10.15;;
67696;SDS011;54486;51.442;6.778;2023-08-30T02:02:38;17.38;;;11.15;;
67696;SDS011;54486;51.442;6.778;2023-08-30T02:05:05;18.73;;;10.35;;
67696;SDS011;54486;51.442;6.778;2023-08-30T02:10:07;17.58;;;10.45;;
67696;SDS011;54486;51.442;6.778;2023-08-30T02:12:39;19.08;;;10.45;;
67696;SDS011;54486;51.442;6.778;2023-08-30T02:15:14;18.83;;;10.67;;
67696;SDS011;54486;51.442;6.778;2023-08-30T02:17:43;19.73;;;11.50;;
67696;SDS011;54486;51.442;6.778;2023-08-30T02:20:12;19.90;;;11.70;;
67696;SDS011;54486;51.442;6.778;2023-08-30T02:22:39;19.73;;;11.87;;
67696;SDS011;54486;51.442;6.778;2023-08-30T02:25:08;18.93;;;11.23;;
67696;SDS011;54486;51.442;6.778;2023-08-30T02:27:37;19.10;;;11.68;;
67696;SDS011;54486;51.442;6.778;2023-08-30T02:30:04;21.60;;;11.77;;
67696;SDS011;54486;51.442;6.778;2023-08-30T02:32:33;17.45;;;10.88;;
67696;SDS011;54486;51.442;6.778;2023-08-30T02:35:01;18.98;;;11.68;;
67696;SDS011;54486;51.442;6.778;2023-08-30T02:37:29;19.42;;;11.00;;
67696;SDS011;54486;51.442;6.778;2023-08-30T02:39:57;21.45;;;11.90;;
67696;SDS011;54486;51.442;6.778;2023-08-30T02:42:24;19.08;;;11.15;;
67696;SDS011;54486;51.442;6.778;2023-08-30T02:44:52;20.40;;;11.65;;
67696;SDS011;54486;51.442;6.778;2023-08-30T02:47:19;18.23;;;11.30;;
67696;SDS011;54486;51.442;6.778;2023-08-30T02:49:48;18.20;;;11.10;;
67696;SDS011;54486;51.442;6.778;2023-08-30T02:52:16;19.80;;;11.90;;
67696;SDS011;54486;51.442;6.778;2023-08-30T02:54:44;18.33;;;11.00;;
67696;SDS011;54486;51.442;6.778;2023-08-30T02:57:11;19.40;;;11.65;;
67696;SDS011;54486;51.442;6.778;2023-08-30T02:59:38;20.90;;;11.67;;
67696;SDS011;54486;51.442;6.778;2023-08-30T03:02:06;20.20;;;11.90;;
67696;SDS011;54486;51.442;6.778;2023-08-30T03:04:33;19.70;;;11.77;;
67696;SDS011;54486;51.442;6.778;2023-08-30T03:07:02;19.52;;;11.05;;
67696;SDS011;54486;51.442;6.778;2023-08-30T03:09:29;18.55;;;11.13;;
67696;SDS011;54486;51.442;6.778;2023-08-30T03:11:57;19.70;;;11.75;;
67696;SDS011;54486;51.442;6.778;2023-08-30T03:14:24;20.00;;;12.05;;
67696;SDS011;54486;51.442;6.778;2023-08-30T03:16:51;21.13;;;11.40;;
67696;SDS011;54486;51.442;6.778;2023-08-30T03:19:18;19.27;;;11.77;;
67696;SDS011;54486;51.442;6.778;2023-08-30T03:21:45;21.75;;;12.02;;
67696;SDS011;54486;51.442;6.778;2023-08-30T03:24:12;19.38;;;11.65;;
67696;SDS011;54486;51.442;6.778;2023-08-30T03:26:42;20.45;;;11.85;;
67696;SDS011;54486;51.442;6.778;2023-08-30T03:29:10;20.58;;;12.13;;
67696;SDS011;54486;51.442;6.778;2023-08-30T03:31:37;20.75;;;11.77;;
67696;SDS011;54486;51.442;6.778;2023-08-30T03:34:04;22.02;;;12.88;;
67696;SDS011;54486;51.442;6.778;2023-08-30T03:36:32;22.60;;;12.02;;
67696;SDS011;54486;51.442;6.778;2023-08-30T03:38:59;20.35;;;12.77;;
67696;SDS011;54486;51.442;6.778;2023-08-30T03:41:26;20.95;;;12.32;;
67696;SDS011;54486;51.442;6.778;2023-08-30T03:43:55;21.05;;;12.55;;
67696;SDS011;54486;51.442;6.778;2023-08-30T03:46:23;20.17;;;12.40;;
67696;SDS011;54486;51.442;6.778;2023-08-30T03:48:50;21.23;;;12.15;;
67696;SDS011;54486;51.442;6.778;2023-08-30T03:51:16;21.20;;;12.13;;
67696;SDS011;54486;51.442;6.778;2023-08-30T03:53:46;21.10;;;12.77;;
67696;SDS011;54486;51.442;6.778;2023-08-30T03:56:13;21.92;;;12.68;;
67696;SDS011;54486;51.442;6.778;2023-08-30T03:58:40;23.00;;;13.00;;
67696;SDS011;54486;51.442;6.778;2023-08-30T04:01:07;20.20;;;12.43;;
67696;SDS011;54486;51.442;6.778;2023-08-30T04:03:34;22.45;;;12.80;;
67696;SDS011;54486;51.442;6.778;2023-08-30T04:06:01;23.25;;;12.60;;
67696;SDS011;54486;51.442;6.778;2023-08-30T04:08:29;20.75;;;12.35;;
67696;SDS011;54486;51.442;6.778;2023-08-30T04:10:56;21.50;;;12.68;;
67696;SDS011;54486;51.442;6.778;2023-08-30T04:13:23;22.73;;;13.07;;
67696;SDS011;54486;51.442;6.778;2023-08-30T04:15:51;20.25;;;12.05;;
67696;SDS011;54486;51.442;6.778;2023-08-30T04:18:18;22.90;;;13.17;;
67696;SDS011;54486;51.442;6.778;2023-08-30T04:20:46;23.73;;;13.15;;
67696;SDS011;54486;51.442;6.778;2023-08-30T04:23:15;23.08;;;13.10;;
67696;SDS011;54486;51.442;6.778;2023-08-30T04:25:43;21.23;;;12.30;;
67696;SDS011;54486;51.442;6.778;2023-08-30T04:28:11;23.15;;;13.35;;
67696;SDS011;54486;51.442;6.778;2023-08-30T04:30:39;22.00;;;12.88;;
67696;SDS011;54486;51.442;6.778;2023-08-30T04:33:06;22.52;;;13.85;;
67696;SDS011;54486;51.442;6.778;2023-08-30T04:35:34;23.52;;;14.20;;
67696;SDS011;54486;51.442;6.778;2023-08-30T04:38:02;23.40;;;14.45;;
67696;SDS011;54486;51.442;6.778;2023-08-30T04:40:31;23.92;;;15.15;;
67696;SDS011;54486;51.442;6.778;2023-08-30T04:42:59;25.83;;;14.85;;
67696;SDS011;54486;51.442;6.778;2023-08-30T04:45:26;24.85;;;15.60;;
67696;SDS011;54486;51.442;6.778;2023-08-30T04:47:54;27.90;;;16.33;;
67696;SDS011;54486;51.442;6.778;2023-08-30T04:50:24;26.60;;;15.60;;
67696;SDS011;54486;51.442;6.778;2023-08-30T04:52:51;27.05;;;15.63;;
67696;SDS011;54486;51.442;6.778;2023-08-30T04:55:19;26.73;;;15.20;;
67696;SDS011;54486;51.442;6.778;2023-08-30T04:57:46;25.57;;;15.30;;
67696;SDS011;54486;51.442;6.778;2023-08-30T05:00:15;26.42;;;14.95;;
67696;SDS011;54486;51.442;6.778;2023-08-30T05:02:43;25.65;;;15.60;;
67696;SDS011;54486;51.442;6.778;2023-08-30T05:05:14;25.85;;;15.60;;
67696;SDS011;54486;51.442;6.778;2023-08-30T05:07:41;26.15;;;15.95;;
67696;SDS011;54486;51.442;6.778;2023-08-30T05:10:09;25.13;;;14.95;;
67696;SDS011;54486;51.442;6.778;2023-08-30T05:12:36;26.63;;;15.15;;
67696;SDS011;54486;51.442;6.778;2023-08-30T05:15:05;26.87;;;15.13;;
67696;SDS011;54486;51.442;6.778;2023-08-30T05:17:33;24.88;;;15.13;;
67696;SDS011;54486;51.442;6.778;2023-08-30T05:20:00;26.15;;;15.38;;
67696;SDS011;54486;51.442;6.778;2023-08-30T05:22:27;27.20;;;16.00;;
67696;SDS011;54486;51.442;6.778;2023-08-30T05:24:54;24.45;;;14.80;;
67696;SDS011;54486;51.442;6.778;2023-08-30T05:27:21;27.80;;;16.40;;
67696;SDS011;54486;51.442;6.778;2023-08-30T05:29:49;26.85;;;16.25;;
67696;SDS011;54486;51.442;6.778;2023-08-30T05:32:16;26.63;;;16.35;;
67696;SDS011;54486;51.442;6.778;2023-08-30T05:34:43;27.02;;;16.13;;
67696;SDS011;54486;51.442;6.778;2023-08-30T05:37:10;26.17;;;16.05;;
67696;SDS011;54486;51.442;6.778;2023-08-30T05:39:36;30.25;;;16.95;;
67696;SDS011;54486;51.442;6.778;2023-08-30T05:42:05;26.90;;;16.10;;
67696;SDS011;54486;51.442;6.778;2023-08-30T05:44:32;28.48;;;16.08;;
67696;SDS011;54486;51.442;6.778;2023-08-30T05:46:59;25.42;;;16.25;;
67696;SDS011;54486;51.442;6.778;2023-08-30T05:49:26;27.13;;;15.75;;
67696;SDS011;54486;51.442;6.778;2023-08-30T05:51:54;27.13;;;16.17;;
67696;SDS011;54486;51.442;6.778;2023-08-30T05:54:21;27.40;;;14.93;;
67696;SDS011;54486;51.442;6.778;2023-08-30T05:56:48;26.93;;;16.20;;
67696;SDS011;54486;51.442;6.778;2023-08-30T05:59:16;24.70;;;14.90;;
67696;SDS011;54486;51.442;6.778;2023-08-30T06:01:43;27.85;;;15.55;;
67696;SDS011;54486;51.442;6.778;2023-08-30T06:04:14;26.98;;;15.60;;
67696;SDS011;54486;51.442;6.778;2023-08-30T06:06:41;25.30;;;14.80;;
67696;SDS011;54486;51.442;6.778;2023-08-30T06:09:08;25.48;;;15.45;;
67696;SDS011;54486;51.442;6.778;2023-08-30T06:11:35;24.20;;;14.68;;
67696;SDS011;54486;51.442;6.778;2023-08-30T06:14:02;25.80;;;14.57;;
67696;SDS011;54486;51.442;6.778;2023-08-30T06:16:29;25.30;;;15.15;;
67696;SDS011;54486;51.442;6.778;2023-08-30T06:18:57;25.95;;;16.05;;
67696;SDS011;54486;51.442;6.778;2023-08-30T06:21:27;23.52;;;14.85;;
67696;SDS011;54486;51.442;6.778;2023-08-30T06:23:54;24.42;;;14.57;;
67696;SDS011;54486;51.442;6.778;2023-08-30T06:26:20;25.10;;;15.17;;
67696;SDS011;54486;51.442;6.778;2023-08-30T06:28:49;25.85;;;15.18;;
67696;SDS011;54486;51.442;6.778;2023-08-30T06:31:31;24.05;;;15.10;;
67696;SDS011;54486;51.442;6.778;2023-08-30T06:34:00;23.73;;;14.50;;
67696;SDS011;54486;51.442;6.778;2023-08-30T06:36:28;25.55;;;14.82;;
67696;SDS011;54486;51.442;6.778;2023-08-30T06:38:56;25.30;;;15.05;;
67696;SDS011;54486;51.442;6.778;2023-08-30T06:41:24;25.10;;;14.70;;
67696;SDS011;54486;51.442;6.778;2023-08-30T06:43:51;25.05;;;15.63;;
67696;SDS011;54486;51.442;6.778;2023-08-30T06:46:20;24.75;;;15.02;;
67696;SDS011;54486;51.442;6.778;2023-08-30T06:48:48;24.33;;;14.77;;
67696;SDS011;54486;51.442;6.778;2023-08-30T06:51:15;25.23;;;14.57;;
67696;SDS011;54486;51.442;6.778;2023-08-30T06:53:43;21.60;;;14.68;;
67696;SDS011;54486;51.442;6.778;2023-08-30T06:56:10;22.08;;;14.25;;
67696;SDS011;54486;51.442;6.778;2023-08-30T06:58:37;22.90;;;14.47;;
67696;SDS011;54486;51.442;6.778;2023-08-30T07:01:05;21.33;;;13.63;;
67696;SDS011;54486;51.442;6.778;2023-08-30T07:03:33;22.40;;;13.30;;
67696;SDS011;54486;51.442;6.778;2023-08-30T07:06:00;22.63;;;14.05;;
67696;SDS011;54486;51.442;6.778;2023-08-30T07:08:28;20.40;;;12.93;;
67696;SDS011;54486;51.442;6.778;2023-08-30T07:10:55;22.03;;;13.23;;
67696;SDS011;54486;51.442;6.778;2023-08-30T07:13:22;19.77;;;12.55;;
67696;SDS011;54486;51.442;6.778;2023-08-30T07:15:50;21.85;;;13.38;;
67696;SDS011;54486;51.442;6.778;2023-08-30T07:18:17;21.50;;;12.63;;
67696;SDS011;54486;51.442;6.778;2023-08-30T07:20:45;20.17;;;11.90;;
67696;SDS011;54486;51.442;6.778;2023-08-30T07:23:13;19.40;;;12.05;;
67696;SDS011;54486;51.442;6.778;2023-08-30T07:25:41;21.90;;;12.60;;
67696;SDS011;54486;51.442;6.778;2023-08-30T07:28:08;19.35;;;11.85;;
67696;SDS011;54486;51.442;6.778;2023-08-30T07:30:36;19.50;;;11.67;;
67696;SDS011;54486;51.442;6.778;2023-08-30T07:33:05;19.55;;;11.65;;
67696;SDS011;54486;51.442;6.778;2023-08-30T07:35:33;18.83;;;11.03;;
67696;SDS011;54486;51.442;6.778;2023-08-30T07:38:00;20.85;;;11.88;;
67696;SDS011;54486;51.442;6.778;2023-08-30T07:40:28;18.52;;;10.90;;
67696;SDS011;54486;51.442;6.778;2023-08-30T07:42:56;17.23;;;9.80;;
67696;SDS011;54486;51.442;6.778;2023-08-30T07:45:30;15.60;;;8.77;;
67696;SDS011;54486;51.442;6.778;2023-08-30T07:47:58;17.17;;;8.93;;
67696;SDS011;54486;51.442;6.778;2023-08-30T07:50:27;15.98;;;8.82;;
67696;SDS011;54486;51.442;6.778;2023-08-30T07:52:55;15.80;;;9.05;;
67696;SDS011;54486;51.442;6.778;2023-08-30T07:55:22;14.13;;;8.27;;
67696;SDS011;54486;51.442;6.778;2023-08-30T07:57:50;15.13;;;8.38;;
67696;SDS011;54486;51.442;6.778;2023-08-30T08:00:17;16.30;;;7.60;;
67696;SDS011;54486;51.442;6.778;2023-08-30T08:02:44;14.55;;;7.85;;
67696;SDS011;54486;51.442;6.778;2023-08-30T08:05:11;13.50;;;7.85;;
67696;SDS011;54486;51.442;6.778;2023-08-30T08:07:41;13.40;;;7.50;;
67696;SDS011;54486;51.442;6.778;2023-08-30T08:10:10;12.90;;;7.40;;
67696;SDS011;54486;51.442;6.778;2023-08-30T08:12:38;13.63;;;6.33;;
67696;SDS011;54486;51.442;6.778;2023-08-30T08:15:06;11.30;;;6.43;;
67696;SDS011;54486;51.442;6.778;2023-08-30T08:17:34;12.48;;;6.47;;
67696;SDS011;54486;51.442;6.778;2023-08-30T08:20:01;14.55;;;6.10;;
67696;SDS011;54486;51.442;6.778;2023-08-30T08:22:30;10.48;;;5.50;;
67696;SDS011;54486;51.442;6.778;2023-08-30T08:24:58;10.00;;;4.85;;
67696;SDS011;54486;51.442;6.778;2023-08-30T08:27:26;13.48;;;5.45;;
67696;SDS011;54486;51.442;6.778;2023-08-30T08:29:54;12.35;;;4.78;;
67696;SDS011;54486;51.442;6.778;2023-08-30T08:32:22;11.43;;;4.68;;
67696;SDS011;54486;51.442;6.778;2023-08-30T08:34:49;9.05;;;4.43;;
67696;SDS011;54486;51.442;6.778;2023-08-30T08:37:16;10.93;;;4.97;;
67696;SDS011;54486;51.442;6.778;2023-08-30T08:39:44;10.32;;;4.40;;
67696;SDS011;54486;51.442;6.778;2023-08-30T08:42:13;9.65;;;4.45;;
67696;SDS011;54486;51.442;6.778;2023-08-30T08:44:43;12.88;;;4.93;;
67696;SDS011;54486;51.442;6.778;2023-08-30T08:47:21;12.13;;;4.75;;
67696;SDS011;54486;51.442;6.778;2023-08-30T08:49:47;10.02;;;4.47;;
67696;SDS011;54486;51.442;6.778;2023-08-30T08:52:17;10.73;;;4.68;;
67696;SDS011;54486;51.442;6.778;2023-08-30T08:54:59;11.70;;;4.10;;
67696;SDS011;54486;51.442;6.778;2023-08-30T08:57:30;9.60;;;4.15;;
67696;SDS011;54486;51.442;6.778;2023-08-30T09:00:00;11.20;;;4.17;;
67696;SDS011;54486;51.442;6.778;2023-08-30T09:02:28;10.57;;;4.73;;
67696;SDS011;54486;51.442;6.778;2023-08-30T09:04:56;11.75;;;4.75;;
67696;SDS011;54486;51.442;6.778;2023-08-30T09:07:26;11.00;;;4.30;;
67696;SDS011;54486;51.442;6.778;2023-08-30T09:09:56;11.05;;;4.90;;
67696;SDS011;54486;51.442;6.778;2023-08-30T09:12:25;11.93;;;5.23;;
67696;SDS011;54486;51.442;6.778;2023-08-30T09:14:54;9.30;;;4.43;;
67696;SDS011;54486;51.442;6.778;2023-08-30T09:17:34;8.70;;;4.30;;
67696;SDS011;54486;51.442;6.778;2023-08-30T09:20:07;10.50;;;4.13;;
67696;SDS011;54486;51.442;6.778;2023-08-30T09:22:41;9.15;;;3.88;;
67696;SDS011;54486;51.442;6.778;2023-08-30T09:25:11;9.30;;;4.22;;
67696;SDS011;54486;51.442;6.778;2023-08-30T09:27:51;9.50;;;3.95;;
67696;SDS011;54486;51.442;6.778;2023-08-30T09:30:25;12.32;;;5.10;;
67696;SDS011;54486;51.442;6.778;2023-08-30T09:32:53;11.93;;;5.75;;
67696;SDS011;54486;51.442;6.778;2023-08-30T09:35:20;11.95;;;5.22;;
67696;SDS011;54486;51.442;6.778;2023-08-30T09:37:47;13.88;;;6.40;;
67696;SDS011;54486;51.442;6.778;2023-08-30T09:40:18;13.57;;;6.53;;
67696;SDS011;54486;51.442;6.778;2023-08-30T09:42:48;12.95;;;6.43;;
67696;SDS011;54486;51.442;6.778;2023-08-30T09:45:32;14.05;;;6.85;;
67696;SDS011;54486;51.442;6.778;2023-08-30T09:48:01;12.82;;;6.88;;
67696;SDS011;54486;51.442;6.778;2023-08-30T09:50:33;13.50;;;7.20;;
67696;SDS011;54486;51.442;6.778;2023-08-30T09:53:08;13.52;;;7.45;;
67696;SDS011;54486;51.442;6.778;2023-08-30T09:55:39;12.68;;;7.05;;
67696;SDS011;54486;51.442;6.778;2023-08-30T09:58:08;12.93;;;6.93;;
67696;SDS011;54486;51.442;6.778;2023-08-30T10:00:36;13.77;;;7.10;;
67696;SDS011;54486;51.442;6.778;2023-08-30T10:03:03;15.77;;;8.27;;
67696;SDS011;54486;51.442;6.778;2023-08-30T10:05:35;16.30;;;8.32;;
67696;SDS011;54486;51.442;6.778;2023-08-30T10:08:03;15.23;;;8.77;;
67696;SDS011;54486;51.442;6.778;2023-08-30T10:10:34;17.05;;;9.02;;
67696;SDS011;54486;51.442;6.778;2023-08-30T10:13:03;15.33;;;8.43;;
67696;SDS011;54486;51.442;6.778;2023-08-30T10:15:39;16.58;;;8.77;;
67696;SDS011;54486;51.442;6.778;2023-08-30T10:18:12;16.52;;;8.80;;
67696;SDS011;54486;51.442;6.778;2023-08-30T10:20:42;16.05;;;9.43;;
67696;SDS011;54486;51.442;6.778;2023-08-30T10:23:11;14.63;;;8.05;;
67696;SDS011;54486;51.442;6.778;2023-08-30T10:25:38;14.27;;;7.78;;
67696;SDS011;54486;51.442;6.778;2023-08-30T10:28:07;15.30;;;7.72;;
67696;SDS011;54486;51.442;6.778;2023-08-30T10:30:35;13.63;;;6.53;;
67696;SDS011;54486;51.442;6.778;2023-08-30T10:33:30;13.13;;;6.88;;
67696;SDS011;54486;51.442;6.778;2023-08-30T10:36:26;12.10;;;6.28;;
67696;SDS011;54486;51.442;6.778;2023-08-30T10:38:55;11.70;;;5.95;;
67696;SDS011;54486;51.442;6.778;2023-08-30T10:41:24;12.27;;;6.30;;
67696;SDS011;54486;51.442;6.778;2023-08-30T10:43:55;11.38;;;5.70;;
67696;SDS011;54486;51.442;6.778;2023-08-30T10:46:30;12.27;;;6.43;;
67696;SDS011;54486;51.442;6.778;2023-08-30T10:49:13;13.98;;;6.63;;
67696;SDS011;54486;51.442;6.778;2023-08-30T10:51:41;14.23;;;7.75;;
67696;SDS011;54486;51.442;6.778;2023-08-30T10:54:12;14.05;;;7.20;;
67696;SDS011;54486;51.442;6.778;2023-08-30T10:59:26;16.20;;;8.75;;
67696;SDS011;54486;51.442;6.778;2023-08-30T11:01:55;14.85;;;8.02;;
67696;SDS011;54486;51.442;6.778;2023-08-30T11:04:24;17.20;;;9.30;;
67696;SDS011;54486;51.442;6.778;2023-08-30T11:06:52;16.75;;;9.20;;
67696;SDS011;54486;51.442;6.778;2023-08-30T11:09:23;17.00;;;9.18;;
67696;SDS011;54486;51.442;6.778;2023-08-30T11:11:51;17.55;;;10.00;;
67696;SDS011;54486;51.442;6.778;2023-08-30T11:14:18;16.58;;;9.50;;
67696;SDS011;54486;51.442;6.778;2023-08-30T11:16:45;17.98;;;9.88;;
67696;SDS011;54486;51.442;6.778;2023-08-30T11:19:13;18.42;;;8.93;;
67696;SDS011;54486;51.442;6.778;2023-08-30T11:21:43;15.43;;;8.73;;
67696;SDS011;54486;51.442;6.778;2023-08-30T11:24:12;15.77;;;8.75;;
67696;SDS011;54486;51.442;6.778;2023-08-30T11:26:39;15.00;;;7.35;;
67696;SDS011;54486;51.442;6.778;2023-08-30T11:29:07;15.18;;;7.50;;
67696;SDS011;54486;51.442;6.778;2023-08-30T11:31:34;13.80;;;6.23;;
67696;SDS011;54486;51.442;6.778;2023-08-30T11:34:02;11.73;;;5.70;;
67696;SDS011;54486;51.442;6.778;2023-08-30T11:36:31;10.15;;;5.50;;
67696;SDS011;54486;51.442;6.778;2023-08-30T11:39:02;9.95;;;4.78;;
67696;SDS011;54486;51.442;6.778;2023-08-30T11:41:30;9.07;;;4.30;;
67696;SDS011;54486;51.442;6.778;2023-08-30T11:43:58;9.50;;;4.20;;
67696;SDS011;54486;51.442;6.778;2023-08-30T11:46:26;10.43;;;4.53;;
67696;SDS011;54486;51.442;6.778;2023-08-30T11:48:54;9.17;;;4.37;;
67696;SDS011;54486;51.442;6.778;2023-08-30T11:51:22;10.10;;;4.35;;
67696;SDS011;54486;51.442;6.778;2023-08-30T11:53:49;9.17;;;4.30;;
67696;SDS011;54486;51.442;6.778;2023-08-30T11:56:18;10.57;;;4.53;;
67696;SDS011;54486;51.442;6.778;2023-08-30T11:58:46;9.43;;;4.20;;
67696;SDS011;54486;51.442;6.778;2023-08-30T12:01:12;9.43;;;4.18;;
67696;SDS011;54486;51.442;6.778;2023-08-30T12:03:41;9.10;;;4.47;;
67696;SDS011;54486;51.442;6.778;2023-08-30T12:06:10;9.05;;;3.80;;
67696;SDS011;54486;51.442;6.778;2023-08-30T12:08:39;8.65;;;3.67;;
67696;SDS011;54486;51.442;6.778;2023-08-30T12:11:16;10.15;;;4.38;;
67696;SDS011;54486;51.442;6.778;2023-08-30T12:13:45;9.20;;;4.03;;
67696;SDS011;54486;51.442;6.778;2023-08-30T12:16:17;9.97;;;4.43;;
67696;SDS011;54486;51.442;6.778;2023-08-30T12:18:47;9.63;;;3.85;;
67696;SDS011;54486;51.442;6.778;2023-08-30T12:21:16;8.88;;;4.03;;
67696;SDS011;54486;51.442;6.778;2023-08-30T12:23:43;8.70;;;3.95;;
67696;SDS011;54486;51.442;6.778;2023-08-30T12:26:10;9.15;;;4.07;;
67696;SDS011;54486;51.442;6.778;2023-08-30T12:28:39;10.57;;;4.50;;
67696;SDS011;54486;51.442;6.778;2023-08-30T12:31:07;9.40;;;4.07;;
67696;SDS011;54486;51.442;6.778;2023-08-30T12:33:36;9.60;;;4.38;;
67696;SDS011;54486;51.442;6.778;2023-08-30T12:36:03;9.98;;;4.20;;
67696;SDS011;54486;51.442;6.778;2023-08-30T12:38:32;10.38;;;5.43;;
67696;SDS011;54486;51.442;6.778;2023-08-30T12:41:00;10.15;;;4.80;;
67696;SDS011;54486;51.442;6.778;2023-08-30T12:43:27;10.00;;;4.50;;
67696;SDS011;54486;51.442;6.778;2023-08-30T12:45:54;10.60;;;4.53;;
67696;SDS011;54486;51.442;6.778;2023-08-30T12:48:23;9.68;;;4.40;;
67696;SDS011;54486;51.442;6.778;2023-08-30T12:50:51;10.00;;;4.40;;
67696;SDS011;54486;51.442;6.778;2023-08-30T12:53:18;10.23;;;4.80;;
67696;SDS011;54486;51.442;6.778;2023-08-30T12:55:44;9.83;;;4.80;;
67696;SDS011;54486;51.442;6.778;2023-08-30T12:58:12;10.98;;;4.78;;
67696;SDS011;54486;51.442;6.778;2023-08-30T13:00:41;10.60;;;4.85;;
67696;SDS011;54486;51.442;6.778;2023-08-30T13:03:10;10.52;;;4.65;;
67696;SDS011;54486;51.442;6.778;2023-08-30T13:05:38;9.80;;;4.60;;
67696;SDS011;54486;51.442;6.778;2023-08-30T13:08:06;11.05;;;5.03;;
67696;SDS011;54486;51.442;6.778;2023-08-30T13:10:34;9.43;;;4.68;;
67696;SDS011;54486;51.442;6.778;2023-08-30T13:13:01;11.23;;;5.13;;
67696;SDS011;54486;51.442;6.778;2023-08-30T13:15:29;9.88;;;4.60;;
67696;SDS011;54486;51.442;6.778;2023-08-30T13:17:57;10.13;;;5.18;;
67696;SDS011;54486;51.442;6.778;2023-08-30T13:20:24;11.25;;;5.63;;
67696;SDS011;54486;51.442;6.778;2023-08-30T13:22:52;11.30;;;5.20;;
67696;SDS011;54486;51.442;6.778;2023-08-30T13:25:20;10.13;;;5.00;;
67696;SDS011;54486;51.442;6.778;2023-08-30T13:27:47;9.95;;;4.88;;
67696;SDS011;54486;51.442;6.778;2023-08-30T13:30:15;9.70;;;4.67;;
67696;SDS011;54486;51.442;6.778;2023-08-30T13:32:43;8.93;;;4.18;;
67696;SDS011;54486;51.442;6.778;2023-08-30T13:35:10;9.73;;;4.57;;
67696;SDS011;54486;51.442;6.778;2023-08-30T13:37:37;10.98;;;4.68;;
67696;SDS011;54486;51.442;6.778;2023-08-30T13:40:04;10.07;;;4.82;;
67696;SDS011;54486;51.442;6.778;2023-08-30T13:42:33;9.80;;;4.73;;
67696;SDS011;54486;51.442;6.778;2023-08-30T13:45:05;10.48;;;5.20;;
67696;SDS011;54486;51.442;6.778;2023-08-30T13:47:33;9.95;;;4.10;;
67696;SDS011;54486;51.442;6.778;2023-08-30T13:50:00;10.20;;;4.10;;
67696;SDS011;54486;51.442;6.778;2023-08-30T13:52:28;10.40;;;4.53;;
67696;SDS011;54486;51.442;6.778;2023-08-30T13:54:56;9.60;;;4.55;;
67696;SDS011;54486;51.442;6.778;2023-08-30T13:57:24;9.40;;;4.40;;
67696;SDS011;54486;51.442;6.778;2023-08-30T13:59:51;8.63;;;4.05;;
67696;SDS011;54486;51.442;6.778;2023-08-30T14:02:19;10.80;;;4.78;;
67696;SDS011;54486;51.442;6.778;2023-08-30T14:04:48;9.85;;;5.03;;
67696;SDS011;54486;51.442;6.778;2023-08-30T14:07:15;12.25;;;5.43;;
67696;SDS011;54486;51.442;6.778;2023-08-30T14:09:43;11.93;;;5.30;;
67696;SDS011;54486;51.442;6.778;2023-08-30T14:12:10;10.77;;;5.57;;
67696;SDS011;54486;51.442;6.778;2023-08-30T14:14:38;10.70;;;5.18;;
67696;SDS011;54486;51.442;6.778;2023-08-30T14:17:05;10.18;;;5.22;;
67696;SDS011;54486;51.442;6.778;2023-08-30T14:19:33;10.98;;;5.07;;
67696;SDS011;54486;51.442;6.778;2023-08-30T14:22:01;9.32;;;4.25;;
67696;SDS011;54486;51.442;6.778;2023-08-30T14:24:32;10.02;;;5.00;;
67696;SDS011;54486;51.442;6.778;2023-08-30T14:27:08;10.57;;;4.28;;
67696;SDS011;54486;51.442;6.778;2023-08-30T14:29:38;12.07;;;4.93;;
67696;SDS011;54486;51.442;6.778;2023-08-30T14:32:06;11.35;;;4.65;;
67696;SDS011;54486;51.442;6.778;2023-08-30T14:34:34;11.98;;;5.88;;
67696;SDS011;54486;51.442;6.778;2023-08-30T14:37:01;11.15;;;5.03;;
67696;SDS011;54486;51.442;6.778;2023-08-30T14:39:28;10.80;;;5.43;;
67696;SDS011;54486;51.442;6.778;2023-08-30T14:41:56;11.40;;;5.38;;
67696;SDS011;54486;51.442;6.778;2023-08-30T14:44:23;12.65;;;5.72;;
67696;SDS011;54486;51.442;6.778;2023-08-30T14:46:53;11.48;;;5.63;;
67696;SDS011;54486;51.442;6.778;2023-08-30T14:49:20;10.45;;;4.85;;
67696;SDS011;54486;51.442;6.778;2023-08-30T14:51:48;10.52;;;5.35;;